»·PEaware :: SWA4424 KDEN-KSAN

SWA4424 :: KDEN-KSAN

FLIGHT INFORMATION

Flight Status: Arrived
Operator:
Southwest Airlines
More flights by this operator :: More flights under this callsign
Pilot: Merv A. (1555)
Aircraft: BOEING 737-700
(B737)
More flights by this aircraft type
Origin: KDEN Denver Intl
United States
Destination: KSAN San Diego Intl-Lindbergh
United States
More flights between these airports :: More routes between these airports
Route: +BAYLR4 TEHRU PLNDL Q86 TTRUE LUCKI1
File this flight plan on PilotEdge
Remarks: PBN / A1B1C1D1S1S2 NAV / RNVD1E2A1 REG / N714SB RMK / SIMBRIEF
Altitude:
(Current/Filed)
38,000ft
Speed:
(Current/Filed)
450kts
Departed: 06-Oct-18 03:17 PM
Arrived: 06-Oct-18 05:22 PM
Distance/Time
Traveled:
740nm/2:05
Distance/Time
To Go:
Arrived

Flight Plot

Page will automatically refresh every two minutes.

Flight plan parsing failed; only flown route is shown


Map Options




Map Legend


Flown Route
Filed Route
Departure Airport
Arrival Airport
Navaid (VOR, NDB)
Fix

Horizontal Profiles

Position Reports

Time Latitude Longitude Heading Altitude Ground
Speed
06-Oct-18 14:31 39.863634 -104.676473 180 5438ft 0kts
06-Oct-18 14:32 39.863634 -104.676473 180 5438ft 0kts
06-Oct-18 14:33 39.863634 -104.676473 180 5438ft 0kts
06-Oct-18 14:34 39.863634 -104.676473 180 5438ft 0kts
06-Oct-18 14:35 39.863634 -104.676473 180 5438ft 0kts
06-Oct-18 14:36 39.863634 -104.676473 180 5438ft 0kts
06-Oct-18 14:37 39.863634 -104.676473 180 5438ft 0kts
06-Oct-18 14:38 39.863634 -104.676473 180 5438ft 0kts
06-Oct-18 14:39 39.863634 -104.676473 180 5438ft 0kts
06-Oct-18 14:40 39.863634 -104.676473 180 5438ft 0kts
06-Oct-18 14:41 39.863634 -104.676473 180 5438ft 0kts
06-Oct-18 14:42 39.863634 -104.676473 180 5438ft 0kts
06-Oct-18 14:43 39.863634 -104.676473 180 5438ft 0kts
06-Oct-18 14:44 39.863634 -104.676473 180 5438ft 0kts
06-Oct-18 14:45 39.863634 -104.676473 180 5438ft 0kts
06-Oct-18 14:46 39.863634 -104.676473 180 5438ft 0kts
06-Oct-18 14:47 39.863634 -104.676473 180 5438ft 0kts
06-Oct-18 14:48 39.863634 -104.676473 180 5438ft 0kts
06-Oct-18 14:49 39.863634 -104.676473 180 5438ft 0kts
06-Oct-18 14:50 39.863634 -104.676473 180 5438ft 0kts
06-Oct-18 14:51 39.863634 -104.676473 180 5438ft 0kts
06-Oct-18 14:52 39.863634 -104.676473 180 5438ft 0kts
06-Oct-18 14:53 39.863634 -104.676473 180 5438ft 0kts
06-Oct-18 14:54 39.863634 -104.676473 180 5438ft 0kts
06-Oct-18 14:55 39.863634 -104.676473 180 5438ft 0kts
06-Oct-18 14:56 39.863634 -104.676473 180 5438ft 0kts
06-Oct-18 14:57 39.863634 -104.676473 180 5438ft 0kts
06-Oct-18 14:58 39.863634 -104.676473 180 5438ft 0kts
06-Oct-18 14:59 39.864159 -104.676308 231 5438ft 2kts
06-Oct-18 15:00 39.864218 -104.676021 270 5438ft 0kts
06-Oct-18 15:01 39.864218 -104.676021 270 5438ft 0kts
06-Oct-18 15:02 39.864218 -104.676021 270 5438ft 0kts
06-Oct-18 15:03 39.864218 -104.676021 270 5438ft 0kts
06-Oct-18 15:04 39.864218 -104.676052 270 5438ft 0kts
06-Oct-18 15:05 39.864227 -104.677677 270 5438ft 6kts
06-Oct-18 15:06 39.864854 -104.680267 272 5438ft 9kts
06-Oct-18 15:07 39.864317 -104.682947 269 5438ft 2kts
06-Oct-18 15:08 39.864317 -104.682961 269 5438ft 0kts
06-Oct-18 15:09 39.864323 -104.684446 274 5438ft 10kts
06-Oct-18 15:10 39.868878 -104.685005 0 5438ft 19kts
06-Oct-18 15:11 39.875265 -104.684916 0 5438ft 24kts
06-Oct-18 15:12 39.881146 -104.684859 0 5438ft 17kts
06-Oct-18 15:13 39.886510 -104.684805 0 5438ft 21kts
06-Oct-18 15:14 39.892654 -104.684727 359 5438ft 21kts
06-Oct-18 15:15 39.896667 -104.684695 355 5438ft 9kts
06-Oct-18 15:16 39.897068 -104.685445 271 5438ft 0kts
06-Oct-18 15:17 39.897069 -104.685466 271 5438ft 1kts
06-Oct-18 15:18 39.896502 -104.686835 181 5438ft 3kts
06-Oct-18 15:19 39.880483 -104.687016 178 5477ft 152kts
06-Oct-18 15:20 39.836088 -104.690863 181 7829ft 166kts
06-Oct-18 15:21 39.786880 -104.704873 191 9242ft 208kts
06-Oct-18 15:22 39.753577 -104.774178 274 10053ft 308kts
06-Oct-18 15:23 39.757265 -104.890324 266 13048ft 320kts
06-Oct-18 15:24 39.765992 -105.008804 257 16180ft 330kts
06-Oct-18 15:25 39.732575 -105.121291 243 19162ft 341kts
06-Oct-18 15:26 39.691999 -105.235293 242 21849ft 354kts
06-Oct-18 15:27 39.649719 -105.353154 242 24216ft 367kts
06-Oct-18 15:28 39.605897 -105.474955 242 26417ft 375kts
06-Oct-18 15:29 39.560723 -105.598218 242 28314ft 384kts
06-Oct-18 15:30 39.521630 -105.730297 247 29965ft 395kts
06-Oct-18 15:31 39.484817 -105.865610 247 31420ft 402kts
06-Oct-18 15:32 39.446690 -106.002587 246 32679ft 408kts
06-Oct-18 15:33 39.408048 -106.139768 246 34190ft 403kts
06-Oct-18 15:34 39.369776 -106.274936 245 35426ft 400kts
06-Oct-18 15:35 39.332024 -106.408993 245 36553ft 398kts
06-Oct-18 15:36 39.293756 -106.543107 245 37523ft 396kts
06-Oct-18 15:37 39.255086 -106.676967 243 38006ft 398kts
06-Oct-18 15:38 39.196260 -106.794084 230 37975ft 388kts
06-Oct-18 15:39 39.129894 -106.903695 229 37962ft 390kts
06-Oct-18 15:40 39.062782 -107.013164 229 37975ft 389kts
06-Oct-18 15:41 38.995737 -107.122452 230 37986ft 389kts
06-Oct-18 15:42 38.928199 -107.232293 229 37987ft 390kts
06-Oct-18 15:43 38.860654 -107.341440 229 37985ft 390kts
06-Oct-18 15:44 38.793242 -107.449892 229 37977ft 390kts
06-Oct-18 15:45 38.725036 -107.559196 229 37952ft 390kts
06-Oct-18 15:46 38.657347 -107.667306 229 37947ft 392kts
06-Oct-18 15:47 38.588983 -107.776097 229 37943ft 391kts
06-Oct-18 15:48 38.520961 -107.883964 229 37950ft 391kts
06-Oct-18 15:49 38.452371 -107.992368 229 37948ft 391kts
06-Oct-18 15:50 38.383814 -108.100368 229 37957ft 392kts
06-Oct-18 15:51 38.315094 -108.208263 229 37972ft 392kts
06-Oct-18 15:52 38.246314 -108.315895 229 37975ft 392kts
06-Oct-18 15:53 38.177127 -108.423804 229 37971ft 392kts
06-Oct-18 15:54 38.107984 -108.531285 229 37970ft 392kts
06-Oct-18 15:55 38.038920 -108.638285 229 37969ft 393kts
06-Oct-18 15:56 37.969905 -108.744862 229 37954ft 391kts
06-Oct-18 15:57 37.900388 -108.851867 229 37947ft 393kts
06-Oct-18 15:58 37.830592 -108.958953 229 37939ft 392kts
06-Oct-18 15:59 37.761109 -109.065203 229 37942ft 393kts
06-Oct-18 16:00 37.691165 -109.171816 229 37949ft 395kts
06-Oct-18 16:01 37.620860 -109.278630 229 37959ft 394kts
06-Oct-18 16:02 37.550617 -109.385025 229 37967ft 395kts
06-Oct-18 16:03 37.480215 -109.491281 229 37967ft 395kts
06-Oct-18 16:04 37.409752 -109.597278 229 37962ft 395kts
06-Oct-18 16:05 37.339189 -109.703118 229 37952ft 395kts
06-Oct-18 16:06 37.268509 -109.808767 229 37945ft 395kts
06-Oct-18 16:07 37.197777 -109.914163 229 37933ft 395kts
06-Oct-18 16:08 37.126648 -110.019795 229 37931ft 396kts
06-Oct-18 16:09 37.055400 -110.125300 230 37919ft 396kts
06-Oct-18 16:10 36.984255 -110.230321 230 37907ft 396kts
06-Oct-18 16:11 36.912921 -110.335270 230 37897ft 396kts
06-Oct-18 16:12 36.841298 -110.440303 230 37887ft 396kts
06-Oct-18 16:13 36.769776 -110.544870 230 37876ft 396kts
06-Oct-18 16:14 36.698315 -110.649023 230 37866ft 396kts
06-Oct-18 16:15 36.626507 -110.753341 230 37858ft 396kts
06-Oct-18 16:16 36.554676 -110.857395 230 37852ft 397kts
06-Oct-18 16:17 36.482504 -110.961581 230 37851ft 396kts
06-Oct-18 16:18 36.410170 -111.065712 230 37852ft 398kts
06-Oct-18 16:19 36.338014 -111.169258 230 37856ft 398kts
06-Oct-18 16:20 36.265567 -111.272874 230 37859ft 397kts
06-Oct-18 16:21 36.192896 -111.376504 230 37859ft 397kts
06-Oct-18 16:22 36.120602 -111.479297 230 37873ft 397kts
06-Oct-18 16:23 36.048007 -111.582346 230 37874ft 397kts
06-Oct-18 16:24 35.975224 -111.685431 229 37881ft 396kts
06-Oct-18 16:25 35.902581 -111.787589 229 37893ft 397kts
06-Oct-18 16:26 35.832418 -111.892933 238 37894ft 396kts
06-Oct-18 16:27 35.778115 -112.011140 240 37894ft 396kts
06-Oct-18 16:28 35.724173 -112.129492 240 37895ft 396kts
06-Oct-18 16:29 35.669299 -112.246430 239 37896ft 396kts
06-Oct-18 16:30 35.614021 -112.363587 240 37899ft 396kts
06-Oct-18 16:31 35.559158 -112.480858 240 37898ft 396kts
06-Oct-18 16:32 35.503963 -112.598613 240 37895ft 397kts
06-Oct-18 16:33 35.448583 -112.716396 240 37896ft 397kts
06-Oct-18 16:34 35.393836 -112.833518 241 37887ft 398kts
06-Oct-18 16:35 35.338555 -112.951204 240 37880ft 399kts
06-Oct-18 16:36 35.282521 -113.069297 240 37869ft 400kts
06-Oct-18 16:37 35.226532 -113.186904 240 37847ft 400kts
06-Oct-18 16:38 35.170343 -113.304363 241 37826ft 401kts
06-Oct-18 16:39 35.113824 -113.422101 241 37812ft 400kts
06-Oct-18 16:40 35.057430 -113.539446 241 37804ft 401kts
06-Oct-18 16:41 35.001456 -113.656675 241 37798ft 400kts
06-Oct-18 16:42 34.945025 -113.773458 241 37788ft 399kts
06-Oct-18 16:43 34.888755 -113.889232 241 37774ft 398kts
06-Oct-18 16:44 34.830459 -114.004992 240 37739ft 397kts
06-Oct-18 16:45 34.771381 -114.119669 241 37704ft 401kts
06-Oct-18 16:46 34.712074 -114.234214 240 37676ft 400kts
06-Oct-18 16:47 34.652370 -114.348955 241 37657ft 399kts
06-Oct-18 16:48 34.582828 -114.455193 233 37652ft 404kts
06-Oct-18 16:49 34.508822 -114.557731 233 37655ft 405kts
06-Oct-18 16:50 34.434082 -114.660593 233 37652ft 405kts
06-Oct-18 16:51 34.359856 -114.762425 233 37670ft 405kts
06-Oct-18 16:52 34.284922 -114.864730 233 37681ft 406kts
06-Oct-18 16:53 34.209367 -114.967564 233 37674ft 408kts
06-Oct-18 16:54 34.134110 -115.070453 234 37675ft 409kts
06-Oct-18 16:55 34.058525 -115.172825 234 37680ft 410kts
06-Oct-18 16:56 33.982234 -115.275905 234 37677ft 410kts
06-Oct-18 16:57 33.906895 -115.378024 235 36978ft 401kts
06-Oct-18 16:58 33.845022 -115.461829 235 34760ft 402kts
06-Oct-18 16:59 33.757760 -115.579294 235 31572ft 398kts
06-Oct-18 17:00 33.697677 -115.659825 235 29829ft 378kts
06-Oct-18 17:01 33.617602 -115.767083 240 27539ft 352kts
06-Oct-18 17:02 33.572316 -115.845278 243 25888ft 336kts
06-Oct-18 17:03 33.510844 -115.951778 243 23732ft 325kts
06-Oct-18 17:04 33.468162 -116.025666 243 22347ft 324kts
06-Oct-18 17:05 33.416590 -116.114369 242 20867ft 330kts
06-Oct-18 17:06 33.362899 -116.206418 242 19465ft 332kts
06-Oct-18 17:07 33.290560 -116.277784 214 17968ft 355kts
06-Oct-18 17:08 33.203338 -116.328968 212 16404ft 338kts
06-Oct-18 17:09 33.117404 -116.379036 212 14888ft 347kts
06-Oct-18 17:10 33.035249 -116.426930 211 13439ft 309kts
06-Oct-18 17:11 32.967056 -116.482391 225 12094ft 289kts
06-Oct-18 17:12 32.906621 -116.544017 224 10924ft 281kts
06-Oct-18 17:13 32.848472 -116.602575 223 9700ft 268kts
06-Oct-18 17:14 32.792064 -116.659381 223 8514ft 260kts
06-Oct-18 17:15 32.751232 -116.725320 243 7395ft 241kts
06-Oct-18 17:16 32.719442 -116.792841 242 6349ft 230kts
06-Oct-18 17:17 32.694152 -116.859911 252 5340ft 216kts
06-Oct-18 17:18 32.675793 -116.921940 252 4430ft 183kts
06-Oct-18 17:19 32.680993 -116.978547 287 3631ft 176kts
06-Oct-18 17:20 32.694911 -117.030550 285 2810ft 158kts
06-Oct-18 17:21 32.707511 -117.082289 283 1964ft 171kts
06-Oct-18 17:22 32.719800 -117.132773 281 1005ft 148kts
06-Oct-18 17:23 32.731225 -117.179977 281 66ft 139kts
06-Oct-18 17:24 32.734935 -117.198388 195 22ft 0kts
06-Oct-18 17:25 32.734933 -117.198388 195 22ft 0kts
06-Oct-18 17:26 32.734423 -117.197426 103 22ft 5kts
06-Oct-18 17:27 32.733734 -117.194686 106 22ft 10kts
06-Oct-18 17:28 32.732325 -117.195091 271 22ft 5kts
06-Oct-18 17:29 32.732511 -117.195474 311 22ft 0kts
06-Oct-18 17:30 32.732511 -117.195474 311 22ft 0kts
06-Oct-18 17:31 32.732511 -117.195474 311 22ft 0kts
06-Oct-18 17:32 32.732511 -117.195474 311 22ft 0kts
06-Oct-18 17:33 32.732511 -117.195474 311 22ft 0kts
06-Oct-18 17:34 32.732511 -117.195474 311 22ft 0kts
06-Oct-18 17:35 32.732511 -117.195474 311 22ft 0kts
06-Oct-18 17:36 32.732511 -117.195474 311 22ft 0kts

Navigation Log

Ident Type
Flight plan parsing failed, navigation log unavailable